Time;durP1;ratioP1;P1;durP2;ratioP2;P2;SDS_P1;SDS_P2;PMS_P1;PMS_P2;Temp;Humidity;BMP_temperature;BMP_pressure;BME280_temperature;BME280_humidity;BME280_pressure;Samples;Min_cycle;Max_cycle;Signal;HPM_P1;HPM_P2
2020/12/12 00:01:18;;;;;;;;;;;12.90;64.40;;;;;;2089857;28;714;-49
2020/12/12 00:02:38;;;;;;;;;;;12.90;65.20;;;;;;2090541;28;710;-49
2020/12/12 00:03:57;;;;;;;;;;;12.90;65.20;;;;;;2090801;28;769;-47
2020/12/12 00:05:16;;;;;;;;;;;12.90;64.50;;;;;;2089273;28;1401;-48
2020/12/12 00:06:35;;;;;;;;;;;12.90;64.60;;;;;;2090370;28;1910;-48
2020/12/12 00:07:54;;;;;;;;;;;12.90;64.50;;;;;;2090056;28;734;-49
2020/12/12 00:09:15;;;;;;;;;;;12.90;64.50;;;;;;2087017;28;740;-48
2020/12/12 00:10:34;;;;;;;;;;;12.90;64.60;;;;;;2090612;28;745;-49
2020/12/12 00:11:53;;;;;;;;;;;12.80;64.50;;;;;;2090660;28;725;-48
2020/12/12 00:13:14;;;;;;;;;;;12.90;64.60;;;;;;2090740;28;705;-48
2020/12/12 00:14:33;;;;;;;;;;;12.80;64.50;;;;;;2090819;28;671;-48
2020/12/12 00:15:52;;;;;;;;;;;12.80;64.60;;;;;;2086395;28;1365;-48
2020/12/12 00:17:11;;;;;;;;;;;12.80;65.20;;;;;;2088833;28;1235;-47
2020/12/12 00:18:30;;;;;;;;;;;12.80;65.30;;;;;;2089789;28;906;-48
2020/12/12 00:19:50;;;;;;;;;;;12.80;65.40;;;;;;2086815;28;740;-48
2020/12/12 00:21:10;;;;;;;;;;;12.80;64.70;;;;;;2090407;28;768;-48
2020/12/12 00:22:30;;;;;;;;;;;12.80;64.70;;;;;;2089683;28;707;-47
2020/12/12 00:23:49;;;;;;;;;;;12.80;64.70;;;;;;2090284;28;786;-48
2020/12/12 00:25:09;;;;;;;;;;;12.80;64.70;;;;;;2089861;28;713;-48
2020/12/12 00:26:28;;;;;;;;;;;12.80;64.80;;;;;;2090366;28;1898;-48
2020/12/12 00:27:47;;;;;;;;;;;12.80;64.80;;;;;;2089944;28;717;-47
2020/12/12 00:29:07;;;;;;;;;;;12.80;64.60;;;;;;2090230;28;730;-47
2020/12/12 00:30:26;;;;;;;;;;;12.80;64.80;;;;;;2090674;28;753;-48
2020/12/12 00:31:45;;;;;;;;;;;12.80;64.70;;;;;;2090090;28;741;-47
2020/12/12 00:33:04;;;;;;;;;;;12.80;65.60;;;;;;2086728;28;696;-48
2020/12/12 00:34:23;;;;;;;;;;;12.80;65.40;;;;;;2090432;28;750;-48
2020/12/12 00:35:42;;;;;;;;;;;12.80;64.80;;;;;;2089678;28;1470;-50
2020/12/12 00:37:02;;;;;;;;;;;12.80;64.80;;;;;;2089477;28;708;-48
2020/12/12 00:38:21;;;;;;;;;;;12.80;64.80;;;;;;2089941;28;742;-47
2020/12/12 00:39:40;;;;;;;;;;;12.80;64.80;;;;;;2090313;28;755;-48
2020/12/12 00:40:59;;;;;;;;;;;12.80;64.90;;;;;;2089635;28;786;-49
2020/12/12 00:42:19;;;;;;;;;;;12.80;64.90;;;;;;2090327;28;637;-49
2020/12/12 00:43:38;;;;;;;;;;;12.80;64.90;;;;;;2089688;28;699;-48
2020/12/12 00:44:57;;;;;;;;;;;12.70;64.90;;;;;;2088982;28;800;-48
2020/12/12 00:46:16;;;;;;;;;;;12.80;64.90;;;;;;2082804;28;1965;-48
2020/12/12 00:47:37;;;;;;;;;;;12.70;65.00;;;;;;2083559;28;964;-48
2020/12/12 00:48:56;;;;;;;;;;;12.70;65.10;;;;;;2081569;28;1025;-49
2020/12/12 00:50:15;;;;;;;;;;;12.70;65.80;;;;;;2082029;28;610;-48
2020/12/12 00:51:34;;;;;;;;;;;12.70;65.80;;;;;;2081454;28;747;-48
2020/12/12 00:52:53;;;;;;;;;;;12.80;65.90;;;;;;2069760;28;715;-48
2020/12/12 00:54:13;;;;;;;;;;;12.70;65.10;;;;;;2082920;28;1148;-48
2020/12/12 00:55:32;;;;;;;;;;;12.70;65.00;;;;;;2089259;28;1460;-47
2020/12/12 00:56:51;;;;;;;;;;;12.70;65.10;;;;;;2089945;28;606;-49
2020/12/12 00:58:11;;;;;;;;;;;12.70;65.20;;;;;;2089873;28;759;-48
2020/12/12 00:59:30;;;;;;;;;;;12.70;65.90;;;;;;2089530;28;761;-48
2020/12/12 01:00:49;;;;;;;;;;;12.70;65.30;;;;;;2086512;28;676;-49
2020/12/12 01:02:08;;;;;;;;;;;12.70;65.20;;;;;;2089999;28;779;-49
2020/12/12 01:03:28;;;;;;;;;;;12.70;65.10;;;;;;2090275;28;710;-48
2020/12/12 01:04:47;;;;;;;;;;;12.70;65.20;;;;;;2089703;28;768;-48
2020/12/12 01:06:12;;;;;;;;;;;12.70;65.20;;;;;;2090089;28;1459;-49
2020/12/12 01:07:32;;;;;;;;;;;12.70;65.20;;;;;;2089280;28;725;-48
2020/12/12 01:08:51;;;;;;;;;;;12.70;65.20;;;;;;2090129;28;697;-50
2020/12/12 01:10:10;;;;;;;;;;;12.70;65.30;;;;;;2090022;28;707;-48
2020/12/12 01:11:29;;;;;;;;;;;12.70;65.30;;;;;;2090364;28;715;-48
2020/12/12 01:12:50;;;;;;;;;;;12.70;65.30;;;;;;2090398;28;722;-48
2020/12/12 01:14:09;;;;;;;;;;;12.70;65.40;;;;;;2090149;28;749;-48
2020/12/12 01:15:28;;;;;;;;;;;12.70;65.40;;;;;;2088144;28;1370;-48
2020/12/12 01:16:47;;;;;;;;;;;12.70;65.50;;;;;;2081179;28;1168;-49
2020/12/12 01:18:07;;;;;;;;;;;12.60;65.30;;;;;;2084804;28;1044;-47
2020/12/12 01:19:26;;;;;;;;;;;12.60;66.10;;;;;;2081933;28;707;-48
2020/12/12 01:20:45;;;;;;;;;;;12.60;66.10;;;;;;2081717;28;812;-47
2020/12/12 01:22:04;;;;;;;;;;;12.60;65.40;;;;;;2081011;28;714;-49
2020/12/12 01:23:23;;;;;;;;;;;12.60;65.40;;;;;;2078270;28;688;-47
2020/12/12 01:24:42;;;;;;;;;;;12.70;65.60;;;;;;2081231;28;782;-47
2020/12/12 01:26:02;;;;;;;;;;;12.60;65.50;;;;;;2081201;28;1389;-48
2020/12/12 01:27:21;;;;;;;;;;;12.60;65.30;;;;;;2080808;28;720;-48
2020/12/12 01:28:40;;;;;;;;;;;12.60;65.50;;;;;;2089229;28;1294;-47
2020/12/12 01:29:59;;;;;;;;;;;12.70;65.50;;;;;;2081448;28;723;-48
2020/12/12 01:31:19;;;;;;;;;;;12.60;65.60;;;;;;2083057;28;741;-49
2020/12/12 01:32:38;;;;;;;;;;;12.60;65.40;;;;;;2089743;28;738;-48
2020/12/12 01:33:57;;;;;;;;;;;12.60;65.50;;;;;;2090156;28;767;-48
2020/12/12 01:35:16;;;;;;;;;;;12.60;65.50;;;;;;2089200;28;683;-48
2020/12/12 01:36:35;;;;;;;;;;;12.60;65.50;;;;;;2089550;28;605;-47
2020/12/12 01:37:54;;;;;;;;;;;12.60;65.60;;;;;;2084981;28;765;-47
2020/12/12 01:39:14;;;;;;;;;;;12.60;66.20;;;;;;2084950;28;730;-47
2020/12/12 01:40:33;;;;;;;;;;;12.60;65.50;;;;;;2086528;28;740;-47
2020/12/12 01:41:55;;;;;;;;;;;12.60;65.70;;;;;;2086780;28;779;-47
2020/12/12 01:43:14;;;;;;;;;;;12.60;65.60;;;;;;2085160;28;729;-47
2020/12/12 01:44:34;;;;;;;;;;;12.60;65.50;;;;;;2085232;28;726;-48
2020/12/12 01:45:53;;;;;;;;;;;12.60;65.60;;;;;;2081261;28;1304;-48
2020/12/12 01:47:12;;;;;;;;;;;12.60;65.60;;;;;;2083190;28;1902;-47
2020/12/12 01:48:31;;;;;;;;;;;12.60;65.60;;;;;;2080509;28;866;-48
2020/12/12 01:49:50;;;;;;;;;;;12.60;65.60;;;;;;2086201;28;713;-47
2020/12/12 01:51:09;;;;;;;;;;;12.60;65.60;;;;;;2084943;28;709;-48
2020/12/12 01:52:29;;;;;;;;;;;12.50;65.50;;;;;;2085261;28;722;-48
2020/12/12 01:53:48;;;;;;;;;;;12.50;65.50;;;;;;2085865;28;781;-47
2020/12/12 01:55:07;;;;;;;;;;;12.50;65.50;;;;;;2088712;28;808;-48
2020/12/12 01:56:26;;;;;;;;;;;12.50;65.60;;;;;;2090055;28;713;-49
2020/12/12 01:57:55;;;;;;;;;;;12.60;65.70;;;;;;2090001;28;768;-47
2020/12/12 01:59:14;;;;;;;;;;;12.50;65.50;;;;;;2089370;28;760;-48
2020/12/12 02:00:33;;;;;;;;;;;12.50;65.60;;;;;;2089733;28;757;-48
2020/12/12 02:01:54;;;;;;;;;;;12.50;66.20;;;;;;2089971;28;703;-48
2020/12/12 02:03:13;;;;;;;;;;;12.50;65.70;;;;;;2089271;28;773;-47
2020/12/12 02:04:32;;;;;;;;;;;12.50;65.50;;;;;;2086359;28;736;-48
2020/12/12 02:05:51;;;;;;;;;;;12.50;65.50;;;;;;2077780;28;1299;-48
2020/12/12 02:07:11;;;;;;;;;;;12.50;65.70;;;;;;2073903;28;1968;-48
2020/12/12 02:08:30;;;;;;;;;;;12.50;65.70;;;;;;2086525;28;750;-48
2020/12/12 02:09:49;;;;;;;;;;;12.50;65.60;;;;;;2089237;28;738;-48
2020/12/12 02:11:12;;;;;;;;;;;12.50;65.70;;;;;;2086224;28;887;-48
2020/12/12 02:12:31;;;;;;;;;;;12.50;65.70;;;;;;2089571;28;689;-48
2020/12/12 02:13:51;;;;;;;;;;;12.50;65.70;;;;;;2089198;28;792;-47
2020/12/12 02:15:10;;;;;;;;;;;12.50;66.40;;;;;;2089287;28;694;-48
2020/12/12 02:16:29;;;;;;;;;;;12.50;66.30;;;;;;2089837;28;1184;-48
2020/12/12 02:17:48;;;;;;;;;;;12.50;65.80;;;;;;2088933;28;1209;-48
2020/12/12 02:19:08;;;;;;;;;;;12.50;65.60;;;;;;2089715;28;1104;-48
2020/12/12 02:20:27;;;;;;;;;;;12.50;65.80;;;;;;2089697;28;1020;-48
2020/12/12 02:21:50;;;;;;;;;;;12.50;65.80;;;;;;2089168;28;755;-49
2020/12/12 02:23:09;;;;;;;;;;;12.50;65.70;;;;;;2089549;28;726;-48
2020/12/12 02:24:33;;;;;;;;;;;12.50;65.80;;;;;;2089127;28;761;-48
2020/12/12 02:25:52;;;;;;;;;;;12.50;65.70;;;;;;2089362;28;1302;-47
2020/12/12 02:27:11;;;;;;;;;;;12.50;65.80;;;;;;2089661;28;1971;-48
2020/12/12 02:28:39;;;;;;;;;;;12.50;65.80;;;;;;2089786;28;705;-48
2020/12/12 02:29:58;;;;;;;;;;;12.50;65.80;;;;;;2089007;28;749;-49
2020/12/12 02:31:17;;;;;;;;;;;12.40;66.30;;;;;;2086290;28;688;-48
2020/12/12 02:32:36;;;;;;;;;;;12.50;66.60;;;;;;2089538;28;741;-47
2020/12/12 02:33:55;;;;;;;;;;;12.50;66.60;;;;;;2080988;28;649;-47
2020/12/12 02:35:14;;;;;;;;;;;12.40;65.50;;;;;;2085470;28;693;-48
2020/12/12 02:36:37;;;;;;;;;;;12.40;65.60;;;;;;2089486;28;707;-50
2020/12/12 02:37:56;;;;;;;;;;;12.40;65.90;;;;;;2089591;28;633;-48
2020/12/12 02:39:16;;;;;;;;;;;12.50;65.90;;;;;;2091718;28;700;-48
2020/12/12 02:40:35;;;;;;;;;;;12.40;65.70;;;;;;2091229;28;738;-47
2020/12/12 02:41:54;;;;;;;;;;;12.40;65.80;;;;;;2091471;28;684;-48
2020/12/12 02:43:13;;;;;;;;;;;12.50;65.70;;;;;;2091458;28;730;-48
2020/12/12 02:44:32;;;;;;;;;;;12.40;65.80;;;;;;2091363;28;730;-47
2020/12/12 02:45:51;;;;;;;;;;;12.40;66.50;;;;;;2087722;28;1368;-48
2020/12/12 02:47:10;;;;;;;;;;;12.40;66.60;;;;;;2089051;28;1969;-47
2020/12/12 02:48:29;;;;;;;;;;;12.40;66.50;;;;;;2090568;28;1303;-48
2020/12/12 02:49:59;;;;;;;;;;;12.40;66.60;;;;;;2091533;28;743;-48
2020/12/12 02:51:18;;;;;;;;;;;12.40;66.50;;;;;;2091349;28;710;-47
2020/12/12 02:52:38;;;;;;;;;;;12.40;65.70;;;;;;2091013;28;709;-47
2020/12/12 02:53:57;;;;;;;;;;;12.40;65.80;;;;;;2091289;28;903;-48
2020/12/12 02:55:16;;;;;;;;;;;12.40;66.60;;;;;;2090451;28;761;-49
2020/12/12 02:56:36;;;;;;;;;;;12.40;66.60;;;;;;2090602;28;780;-48
2020/12/12 02:57:55;;;;;;;;;;;12.40;65.80;;;;;;2090996;28;670;-48
2020/12/12 02:59:14;;;;;;;;;;;12.40;66.00;;;;;;2090653;28;755;-48
2020/12/12 03:00:33;;;;;;;;;;;12.40;65.90;;;;;;2091048;28;727;-50
2020/12/12 03:01:52;;;;;;;;;;;12.40;65.90;;;;;;2090551;28;712;-48
2020/12/12 03:03:12;;;;;;;;;;;12.40;65.80;;;;;;2087385;28;720;-49
2020/12/12 03:04:31;;;;;;;;;;;12.40;66.00;;;;;;2091062;28;718;-48
2020/12/12 03:05:50;;;;;;;;;;;12.40;65.90;;;;;;2091010;28;1305;-47
2020/12/12 03:07:10;;;;;;;;;;;12.40;66.00;;;;;;2091161;28;1985;-48
2020/12/12 03:08:29;;;;;;;;;;;12.40;66.00;;;;;;2091390;28;685;-48
2020/12/12 03:09:48;;;;;;;;;;;12.40;66.10;;;;;;2091024;28;727;-48
2020/12/12 03:11:07;;;;;;;;;;;12.30;65.70;;;;;;2091238;28;654;-47
2020/12/12 03:12:26;;;;;;;;;;;12.40;66.80;;;;;;2091220;28;831;-48
2020/12/12 03:13:45;;;;;;;;;;;12.30;66.00;;;;;;2091374;28;677;-48
2020/12/12 03:15:05;;;;;;;;;;;12.40;66.10;;;;;;2090365;28;708;-48
2020/12/12 03:16:24;;;;;;;;;;;12.30;65.80;;;;;;2082760;28;1370;-48
2020/12/12 03:17:44;;;;;;;;;;;12.40;66.00;;;;;;2091193;28;1095;-47
2020/12/12 03:19:03;;;;;;;;;;;12.40;66.10;;;;;;2091262;28;1177;-49
2020/12/12 03:20:23;;;;;;;;;;;12.30;65.80;;;;;;2090337;28;719;-48
2020/12/12 03:21:42;;;;;;;;;;;12.40;66.00;;;;;;2085093;28;1338;-49
2020/12/12 03:23:02;;;;;;;;;;;12.40;66.00;;;;;;2086976;28;586;-47
2020/12/12 03:24:21;;;;;;;;;;;12.30;66.10;;;;;;2087166;28;759;-49
2020/12/12 03:25:40;;;;;;;;;;;12.30;66.10;;;;;;2086494;28;1441;-47
2020/12/12 03:26:59;;;;;;;;;;;12.30;65.90;;;;;;2086704;28;1899;-48
2020/12/12 03:28:18;;;;;;;;;;;12.30;66.00;;;;;;2078419;28;812;-47
2020/12/12 03:29:38;;;;;;;;;;;12.30;66.00;;;;;;2080632;28;1042;-48
2020/12/12 03:30:57;;;;;;;;;;;12.40;66.70;;;;;;2090545;28;791;-48
2020/12/12 03:32:16;;;;;;;;;;;12.30;66.70;;;;;;2090633;28;673;-47
2020/12/12 03:33:35;;;;;;;;;;;12.30;65.90;;;;;;2091315;28;703;-48
2020/12/12 03:34:54;;;;;;;;;;;12.30;65.80;;;;;;2090129;28;696;-50
2020/12/12 03:36:14;;;;;;;;;;;12.30;65.90;;;;;;2090807;28;1333;-48
2020/12/12 03:37:33;;;;;;;;;;;12.30;66.00;;;;;;2090599;28;726;-47
2020/12/12 03:38:52;;;;;;;;;;;12.30;66.10;;;;;;2090692;28;706;-48
2020/12/12 03:40:11;;;;;;;;;;;12.30;66.10;;;;;;2090451;28;634;-48
2020/12/12 03:41:31;;;;;;;;;;;12.30;66.10;;;;;;2082190;28;741;-50
2020/12/12 03:42:53;;;;;;;;;;;12.30;66.10;;;;;;2081572;28;2335;-48
2020/12/12 03:44:12;;;;;;;;;;;12.30;66.10;;;;;;2087529;28;766;-48
2020/12/12 03:45:31;;;;;;;;;;;12.30;66.70;;;;;;2088769;28;1316;-47
2020/12/12 03:46:51;;;;;;;;;;;12.30;66.00;;;;;;2085903;28;1913;-50
2020/12/12 03:48:10;;;;;;;;;;;12.30;66.10;;;;;;2090611;28;1039;-48
2020/12/12 03:49:29;;;;;;;;;;;12.30;66.20;;;;;;2082254;28;740;-47
2020/12/12 03:50:48;;;;;;;;;;;12.30;66.10;;;;;;2081642;28;719;-49
2020/12/12 03:52:08;;;;;;;;;;;12.30;66.20;;;;;;2082579;28;633;-49
2020/12/12 03:53:27;;;;;;;;;;;12.30;66.10;;;;;;2081629;28;726;-48
2020/12/12 03:54:46;;;;;;;;;;;12.30;66.10;;;;;;2081471;28;755;-48
2020/12/12 03:56:05;;;;;;;;;;;12.30;66.20;;;;;;2081867;28;1377;-47
2020/12/12 03:57:25;;;;;;;;;;;12.30;66.00;;;;;;2082227;28;728;-48
2020/12/12 03:58:44;;;;;;;;;;;12.20;66.00;;;;;;2090203;28;720;-48
2020/12/12 04:00:04;;;;;;;;;;;12.20;65.80;;;;;;2085569;28;763;-48
2020/12/12 04:01:23;;;;;;;;;;;12.30;66.10;;;;;;2082316;28;699;-48
2020/12/12 04:02:43;;;;;;;;;;;12.30;66.10;;;;;;2082339;28;750;-47
2020/12/12 04:04:02;;;;;;;;;;;12.20;66.60;;;;;;2081838;28;760;-47
2020/12/12 04:05:21;;;;;;;;;;;12.20;66.10;;;;;;2081513;28;1346;-48
2020/12/12 04:06:41;;;;;;;;;;;12.20;66.00;;;;;;2082232;28;1902;-48
2020/12/12 04:08:00;;;;;;;;;;;12.30;66.20;;;;;;2082209;28;750;-48
2020/12/12 04:09:19;;;;;;;;;;;12.20;66.00;;;;;;2081686;28;777;-48
2020/12/12 04:10:38;;;;;;;;;;;12.30;66.90;;;;;;2082228;28;703;-48
2020/12/12 04:11:58;;;;;;;;;;;12.20;66.00;;;;;;2082322;28;774;-49
2020/12/12 04:13:17;;;;;;;;;;;12.20;66.00;;;;;;2082527;28;719;-47
2020/12/12 04:14:36;;;;;;;;;;;12.20;66.10;;;;;;2081764;28;752;-48
2020/12/12 04:15:55;;;;;;;;;;;12.20;66.00;;;;;;2082058;28;1441;-49
2020/12/12 04:17:14;;;;;;;;;;;12.20;66.20;;;;;;2088304;28;1009;-48
2020/12/12 04:18:33;;;;;;;;;;;12.20;66.10;;;;;;2083486;28;1001;-48
2020/12/12 04:19:53;;;;;;;;;;;12.20;66.70;;;;;;2090769;28;778;-48
2020/12/12 04:21:12;;;;;;;;;;;12.20;66.20;;;;;;2089956;28;731;-48
2020/12/12 04:22:31;;;;;;;;;;;12.20;67.00;;;;;;2090525;28;746;-48
2020/12/12 04:23:51;;;;;;;;;;;12.20;66.10;;;;;;2090615;28;717;-47
2020/12/12 04:25:10;;;;;;;;;;;12.20;66.20;;;;;;2089887;28;703;-48
2020/12/12 04:26:29;;;;;;;;;;;12.20;66.20;;;;;;2090587;28;1956;-47
2020/12/12 04:27:48;;;;;;;;;;;12.20;66.30;;;;;;2090475;28;785;-47
2020/12/12 04:29:08;;;;;;;;;;;12.20;66.40;;;;;;2089812;28;707;-47
2020/12/12 04:30:27;;;;;;;;;;;12.20;66.30;;;;;;2086736;28;824;-51
2020/12/12 04:31:46;;;;;;;;;;;12.20;66.30;;;;;;2090400;28;677;-47
2020/12/12 04:33:06;;;;;;;;;;;12.20;66.10;;;;;;2090712;28;748;-48
2020/12/12 04:34:25;;;;;;;;;;;12.20;66.30;;;;;;2090453;28;717;-48
2020/12/12 04:35:44;;;;;;;;;;;12.20;66.10;;;;;;2090406;28;1456;-48
2020/12/12 04:37:03;;;;;;;;;;;12.20;66.20;;;;;;2090525;28;740;-50
2020/12/12 04:38:23;;;;;;;;;;;12.20;67.10;;;;;;2089530;28;809;-48
2020/12/12 04:39:42;;;;;;;;;;;12.20;67.00;;;;;;2089858;28;734;-47
2020/12/12 04:41:01;;;;;;;;;;;12.20;66.40;;;;;;2090347;28;724;-47
2020/12/12 04:42:20;;;;;;;;;;;12.20;66.40;;;;;;2089848;28;721;-47
2020/12/12 04:43:40;;;;;;;;;;;12.20;66.20;;;;;;2090304;28;733;-48
2020/12/12 04:44:59;;;;;;;;;;;12.20;66.60;;;;;;2089029;28;761;-48
2020/12/12 04:46:19;;;;;;;;;;;12.20;66.50;;;;;;2088260;28;1425;-48
2020/12/12 04:47:42;;;;;;;;;;;12.20;66.20;;;;;;2089650;28;1027;-48
2020/12/12 04:49:01;;;;;;;;;;;12.20;66.20;;;;;;2089666;28;1016;-47
2020/12/12 04:50:28;;;;;;;;;;;12.20;66.20;;;;;;2089914;28;814;-50
2020/12/12 04:51:48;;;;;;;;;;;12.20;66.80;;;;;;2090215;28;703;-47
2020/12/12 04:53:11;;;;;;;;;;;12.20;66.00;;;;;;2089692;28;1183;-48
2020/12/12 04:54:31;;;;;;;;;;;12.30;65.90;;;;;;2088757;28;990;-47
2020/12/12 04:55:51;;;;;;;;;;;12.30;65.60;;;;;;2086502;28;1478;-46
2020/12/12 04:57:10;;;;;;;;;;;12.30;65.40;;;;;;2086305;28;808;-47
2020/12/12 04:58:29;;;;;;;;;;;12.40;65.00;;;;;;2090320;28;775;-48
2020/12/12 04:59:48;;;;;;;;;;;12.40;64.70;;;;;;2090427;28;734;-48
2020/12/12 05:01:08;;;;;;;;;;;12.50;64.30;;;;;;2081312;28;762;-48
2020/12/12 05:02:27;;;;;;;;;;;12.50;63.80;;;;;;2074316;28;718;-47
2020/12/12 05:03:46;;;;;;;;;;;12.60;63.60;;;;;;2083182;28;756;-48
2020/12/12 05:05:05;;;;;;;;;;;12.70;63.20;;;;;;2089267;28;735;-48
2020/12/12 05:06:28;;;;;;;;;;;12.70;62.80;;;;;;2089705;28;1983;-48
2020/12/12 05:07:47;;;;;;;;;;;12.70;62.50;;;;;;2089827;28;645;-49
2020/12/12 05:09:06;;;;;;;;;;;12.80;62.30;;;;;;2089516;28;771;-48
2020/12/12 05:10:26;;;;;;;;;;;12.80;62.10;;;;;;2090274;28;696;-49
2020/12/12 05:11:46;;;;;;;;;;;12.80;62.70;;;;;;2089530;28;747;-48
2020/12/12 05:13:21;;;;;;;;;;;12.80;61.90;;;;;;2078293;28;713;-48
2020/12/12 05:14:40;;;;;;;;;;;12.80;61.80;;;;;;2089148;28;748;-48
2020/12/12 05:15:59;;;;;;;;;;;12.80;61.70;;;;;;2085301;28;1314;-49
2020/12/12 05:17:19;;;;;;;;;;;12.80;61.70;;;;;;2088623;28;997;-48
2020/12/12 05:18:37;;;;;;;;;;;12.80;61.70;;;;;;2080083;28;886;-48
2020/12/12 05:19:57;;;;;;;;;;;12.80;61.70;;;;;;2086273;28;733;-49
2020/12/12 05:21:17;;;;;;;;;;;12.80;61.70;;;;;;2089965;28;712;-48
2020/12/12 05:22:36;;;;;;;;;;;12.80;61.80;;;;;;2089519;28;613;-49
2020/12/12 05:23:55;;;;;;;;;;;12.70;61.70;;;;;;2086219;28;1303;-49
2020/12/12 05:25:15;;;;;;;;;;;12.80;62.60;;;;;;2085466;28;706;-48
2020/12/12 05:26:34;;;;;;;;;;;12.80;61.90;;;;;;2089797;28;1906;-48
2020/12/12 05:27:53;;;;;;;;;;;12.80;61.90;;;;;;2087848;28;1335;-47
2020/12/12 05:29:13;;;;;;;;;;;12.80;62.00;;;;;;2084014;28;1502;-49
2020/12/12 05:30:33;;;;;;;;;;;12.70;61.90;;;;;;2084229;28;1091;-47
2020/12/12 05:31:53;;;;;;;;;;;12.70;62.00;;;;;;2083158;28;1553;-48
2020/12/12 05:33:13;;;;;;;;;;;12.80;62.10;;;;;;2086520;28;741;-48
2020/12/12 05:34:32;;;;;;;;;;;12.70;62.10;;;;;;2089856;28;733;-48
2020/12/12 05:35:52;;;;;;;;;;;12.70;62.20;;;;;;2090029;28;1344;-48
2020/12/12 05:37:11;;;;;;;;;;;12.70;62.30;;;;;;2081084;28;761;-47
2020/12/12 05:38:30;;;;;;;;;;;12.70;62.30;;;;;;2086390;28;720;-48
2020/12/12 05:39:49;;;;;;;;;;;12.70;62.30;;;;;;2090125;28;669;-48
2020/12/12 05:41:08;;;;;;;;;;;12.70;62.40;;;;;;2090200;28;660;-48
2020/12/12 05:42:28;;;;;;;;;;;12.70;63.20;;;;;;2086418;28;797;-48
2020/12/12 05:43:47;;;;;;;;;;;12.70;62.50;;;;;;2082738;28;982;-47
2020/12/12 05:45:06;;;;;;;;;;;12.70;62.60;;;;;;2077945;28;1235;-48
2020/12/12 05:46:25;;;;;;;;;;;12.70;62.60;;;;;;2082761;28;1130;-48
2020/12/12 05:47:45;;;;;;;;;;;12.60;62.60;;;;;;2068352;28;1236;-48
2020/12/12 05:49:04;;;;;;;;;;;12.60;62.70;;;;;;2081673;28;1190;-49
2020/12/12 05:50:24;;;;;;;;;;;12.60;62.80;;;;;;2092225;28;1235;-48
2020/12/12 05:51:43;;;;;;;;;;;12.60;62.90;;;;;;2085545;28;1200;-49
2020/12/12 05:53:02;;;;;;;;;;;12.60;62.90;;;;;;2078956;28;1291;-48
2020/12/12 05:54:22;;;;;;;;;;;12.60;62.90;;;;;;2084018;28;1120;-48
2020/12/12 05:55:41;;;;;;;;;;;12.60;63.00;;;;;;2077214;28;1455;-49
2020/12/12 05:57:00;;;;;;;;;;;12.60;63.10;;;;;;2081818;28;1278;-47
2020/12/12 05:58:19;;;;;;;;;;;12.60;63.10;;;;;;2085657;28;1253;-49
2020/12/12 05:59:38;;;;;;;;;;;12.60;64.20;;;;;;2079799;28;1173;-47
2020/12/12 06:00:57;;;;;;;;;;;12.60;65.40;;;;;;2085788;28;1509;-48
2020/12/12 06:02:17;;;;;;;;;;;12.60;64.80;;;;;;2085590;28;1462;-48
2020/12/12 06:03:37;;;;;;;;;;;12.60;64.60;;;;;;2082081;28;1158;-49
2020/12/12 06:04:56;;;;;;;;;;;12.60;64.50;;;;;;2082536;28;1126;-49
2020/12/12 06:06:15;;;;;;;;;;;12.60;64.30;;;;;;2081963;28;1375;-48
2020/12/12 06:07:34;;;;;;;;;;;12.60;64.40;;;;;;2085041;28;1131;-48
2020/12/12 06:09:04;;;;;;;;;;;12.60;64.50;;;;;;2084509;28;1414;-48
2020/12/12 06:10:24;;;;;;;;;;;12.60;64.50;;;;;;2080473;28;1125;-48
2020/12/12 06:11:43;;;;;;;;;;;12.60;64.50;;;;;;2079482;28;1336;-47
2020/12/12 06:13:03;;;;;;;;;;;12.60;64.50;;;;;;2082185;28;1419;-48
2020/12/12 06:14:23;;;;;;;;;;;12.60;64.50;;;;;;2085159;28;1201;-48
2020/12/12 06:15:42;;;;;;;;;;;12.50;64.50;;;;;;2086811;28;1504;-48
2020/12/12 06:17:05;;;;;;;;;;;12.50;64.50;;;;;;2083715;28;1455;-47
2020/12/12 06:18:30;;;;;;;;;;;12.50;64.50;;;;;;2081652;28;1093;-48
2020/12/12 06:19:49;;;;;;;;;;;12.50;64.60;;;;;;2079223;28;1304;-48
2020/12/12 06:21:09;;;;;;;;;;;12.50;64.60;;;;;;2072241;28;1428;-47
2020/12/12 06:22:28;;;;;;;;;;;12.50;64.60;;;;;;2076991;28;1447;-47
2020/12/12 06:23:47;;;;;;;;;;;12.50;64.60;;;;;;2078369;28;1228;-47
2020/12/12 06:25:06;;;;;;;;;;;12.50;64.60;;;;;;2084408;28;1247;-48
2020/12/12 06:26:32;;;;;;;;;;;12.50;64.70;;;;;;2076905;28;1015;-48
2020/12/12 06:27:52;;;;;;;;;;;12.50;64.70;;;;;;2082879;28;801;-47
2020/12/12 06:29:14;;;;;;;;;;;12.50;64.70;;;;;;2082878;28;785;-47
2020/12/12 06:30:33;;;;;;;;;;;12.50;64.70;;;;;;2085056;28;773;-47
2020/12/12 06:31:52;;;;;;;;;;;12.50;64.80;;;;;;2074402;28;783;-47
2020/12/12 06:33:11;;;;;;;;;;;12.50;64.80;;;;;;2085456;28;740;-47
2020/12/12 06:34:42;;;;;;;;;;;12.50;64.90;;;;;;2088971;28;762;-48
2020/12/12 06:36:21;;;;;;;;;;;12.50;64.90;;;;;;2085689;28;1357;-48
2020/12/12 06:37:40;;;;;;;;;;;12.50;64.90;;;;;;2087566;28;966;-48
2020/12/12 06:39:18;;;;;;;;;;;12.50;65.00;;;;;;2088182;28;780;-48
2020/12/12 06:40:40;;;;;;;;;;;12.50;65.20;;;;;;2087114;28;996;-47
2020/12/12 06:41:59;;;;;;;;;;;12.50;65.10;;;;;;2085436;28;756;-48
2020/12/12 06:43:37;;;;;;;;;;;12.50;65.00;;;;;;2085182;28;748;-47
2020/12/12 06:44:56;;;;;;;;;;;12.60;64.90;;;;;;2090671;28;721;-49
2020/12/12 06:46:18;;;;;;;;;;;12.70;64.50;;;;;;2090251;28;1548;-48
2020/12/12 06:47:39;;;;;;;;;;;12.80;64.10;;;;;;2081164;28;1034;-47
2020/12/12 06:49:10;;;;;;;;;;;12.80;63.60;;;;;;2091087;28;1186;-48
2020/12/12 06:50:36;;;;;;;;;;;12.90;63.40;;;;;;2091274;28;664;-47
2020/12/12 06:51:55;;;;;;;;;;;12.90;62.80;;;;;;2091372;28;717;-48
2020/12/12 06:53:21;;;;;;;;;;;13.00;63.20;;;;;;2090454;28;739;-47
2020/12/12 06:54:40;;;;;;;;;;;13.10;62.90;;;;;;2091256;28;801;-48
2020/12/12 06:56:15;;;;;;;;;;;13.10;61.70;;;;;;2091176;28;1341;-47
2020/12/12 06:57:37;;;;;;;;;;;13.20;61.50;;;;;;2091319;28;733;-48
2020/12/12 06:58:56;;;;;;;;;;;13.30;61.00;;;;;;2090625;28;681;-49
2020/12/12 07:00:31;;;;;;;;;;;13.30;60.70;;;;;;2087705;28;782;-49
2020/12/12 07:01:53;;;;;;;;;;;13.40;60.50;;;;;;2091160;28;747;-48
2020/12/12 07:03:12;;;;;;;;;;;13.50;60.00;;;;;;2091351;28;645;-48
2020/12/12 07:04:32;;;;;;;;;;;13.50;59.80;;;;;;2085097;28;1921;-48
2020/12/12 07:05:51;;;;;;;;;;;13.60;59.70;;;;;;2090789;28;1461;-48
2020/12/12 07:07:11;;;;;;;;;;;13.70;59.40;;;;;;2090436;28;1972;-48
2020/12/12 07:08:31;;;;;;;;;;;13.70;59.10;;;;;;2081998;28;789;-48
2020/12/12 07:09:50;;;;;;;;;;;13.80;59.10;;;;;;2082239;28;734;-47
2020/12/12 07:11:09;;;;;;;;;;;13.80;58.90;;;;;;2082400;28;678;-48
2020/12/12 07:12:28;;;;;;;;;;;13.90;58.80;;;;;;2082631;28;698;-48
2020/12/12 07:13:48;;;;;;;;;;;14.00;58.50;;;;;;2083035;28;709;-48
2020/12/12 07:15:07;;;;;;;;;;;14.00;58.30;;;;;;2079720;28;1296;-49
2020/12/12 07:16:26;;;;;;;;;;;14.10;58.20;;;;;;2084156;28;1144;-48
2020/12/12 07:17:45;;;;;;;;;;;14.10;58.00;;;;;;2087769;28;1080;-47
2020/12/12 07:19:04;;;;;;;;;;;14.20;57.90;;;;;;2082924;28;1100;-48
2020/12/12 07:20:23;;;;;;;;;;;14.20;57.70;;;;;;2081866;28;1258;-49
2020/12/12 07:21:43;;;;;;;;;;;14.30;57.50;;;;;;2088759;28;1285;-49
2020/12/12 07:23:03;;;;;;;;;;;14.40;57.50;;;;;;2085809;28;1306;-46
2020/12/12 07:24:22;;;;;;;;;;;14.40;57.20;;;;;;2083752;28;1073;-49
2020/12/12 07:25:41;;;;;;;;;;;14.50;57.00;;;;;;2087324;28;1413;-48
2020/12/12 07:27:01;;;;;;;;;;;14.50;56.90;;;;;;2086461;28;1907;-48
2020/12/12 07:28:20;;;;;;;;;;;14.60;56.70;;;;;;2082546;28;1303;-48
2020/12/12 07:29:39;;;;;;;;;;;14.60;56.60;;;;;;2086870;28;1264;-48
2020/12/12 07:31:00;;;;;;;;;;;14.60;56.50;;;;;;2088136;28;1175;-48
2020/12/12 07:32:19;;;;;;;;;;;14.60;56.50;;;;;;2089227;28;1270;-47
2020/12/12 07:33:46;;;;;;;;;;;14.60;57.00;;;;;;2087542;28;1158;-47
2020/12/12 07:35:05;;;;;;;;;;;14.60;56.60;;;;;;2085489;28;1299;-47
2020/12/12 07:36:25;;;;;;;;;;;14.60;56.60;;;;;;2089934;28;1108;-48
2020/12/12 07:37:44;;;;;;;;;;;14.60;56.80;;;;;;2077287;28;1244;-49
2020/12/12 07:39:07;;;;;;;;;;;14.60;57.40;;;;;;2083451;28;1211;-48
2020/12/12 07:40:32;;;;;;;;;;;14.60;56.90;;;;;;2084985;28;1432;-48
2020/12/12 07:41:51;;;;;;;;;;;14.60;56.90;;;;;;2084720;28;1272;-48
2020/12/12 07:43:11;;;;;;;;;;;14.70;57.00;;;;;;2082193;28;1141;-48
2020/12/12 07:44:31;;;;;;;;;;;14.70;57.00;;;;;;2081871;28;1050;-48
2020/12/12 07:46:08;;;;;;;;;;;14.70;56.90;;;;;;2079206;28;1393;-48
2020/12/12 07:47:27;;;;;;;;;;;14.70;56.80;;;;;;2087094;28;1965;-48
2020/12/12 07:48:58;;;;;;;;;;;14.80;56.70;;;;;;2075275;28;1379;-48
2020/12/12 07:50:17;;;;;;;;;;;14.80;56.70;;;;;;2083029;28;1216;-48
2020/12/12 07:51:36;;;;;;;;;;;14.90;57.00;;;;;;2087872;28;1159;-48
2020/12/12 07:52:55;;;;;;;;;;;14.90;56.90;;;;;;2086490;28;1275;-47
2020/12/12 07:54:21;;;;;;;;;;;15.00;56.50;;;;;;2086531;28;1254;-49
2020/12/12 07:55:51;;;;;;;;;;;15.00;56.70;;;;;;2074549;28;1507;-47
2020/12/12 07:57:11;;;;;;;;;;;15.10;57.00;;;;;;2082199;28;1107;-47
2020/12/12 07:58:32;;;;;;;;;;;15.20;56.90;;;;;;2086497;28;987;-48